VVNB Airport Information

Runway Information
Runway 11L Length 12466 ft width 148 ft
Elevation 40 ft Threshold 0 ft Heading 107
Runway 29R Length 12466 ft Width 148 ft
Elevation 40 ft Threshold 0 ft Heading 287
Runway 11R Length 12466 ft width 148 ft
Elevation 38 ft Threshold 0 ft Heading 107
Runway 29L Length 12466 ft Width 148 ft
Elevation 39 ft Threshold 0 ft Heading 287
Airport Frequencies
Type APP Name APP Frequency 125.1 MHZ
Type GND Name GND Frequency 121.9 MHZ
Type TWR Name TWR Frequency 118.2 MHZ
Airport Navaids
Type NDB Name Noibai Frequency 230 KHZ
Type NDB Name Noibai Frequency 320 KHZ
Type VOR-DME Name Noibai Frequency 116100 KHZ
Airport Weather Information & NOTAM
ADDS - METARS form results

(1510 UTC 24 July 2021)
Data provider http://aviationweather.gov/metar/data/
 
METAR text: VVNB 241500Z VRB02KT CAVOK 30/27 Q1000 NOSIG
Conditions at: VVNB (HANOI/NOIBAI INT, VN) observed 1500 UTC 24 July 2021
Temperature: 30.0°C (86°F)
Dewpoint: 27.0°C (81°F) [RH = 84%]
Pressure (altimeter): 29.53 inches Hg (1000.0 mb)
Winds: variable direction winds at 2 MPH (2 knots; 1.0 m/s)
Visibility: 6 or more miles (10+ km)
Ceiling: ceiling and visibility are OK
Clouds: unknown
Weather: no significant weather observed at this time

METAR text: VVNB 241430Z 23002KT CAVOK 29/28 Q1000 NOSIG
Conditions at: VVNB (HANOI/NOIBAI INT, VN) observed 1430 UTC 24 July 2021
Temperature: 29.0°C (84°F)
Dewpoint: 28.0°C (82°F) [RH = 94%]
Pressure (altimeter): 29.53 inches Hg (1000.0 mb)
Winds: from the SW (230 degrees) at 2 MPH (2 knots; 1.0 m/s)
Visibility: 6 or more miles (10+ km)
Ceiling: ceiling and visibility are OK
Clouds: unknown
Weather: no significant weather observed at this time

Forecast for: VVNB (HANOI/NOIBAI INT, VN)
Text: TAF VVNB 241100Z 2412/2512 08007KT 8000 SCT020
Forecast period: 1200 UTC 24 July 2021 to 1200 UTC 25 July 2021
Forecast type: FROM: standard forecast or significant change
Winds: from the E (80 degrees) at 8 MPH (7 knots; 3.6 m/s)
Visibility: 5 miles (8 km)
Ceiling: at least 12,000 feet AGL
Clouds: scattered clouds at 2000 feet AGL
Weather: no significant weather forecast for this period
Text: TEMPO 2420/2501 4000 -RA BR SCT015 BKN040
Forecast period: 2000 UTC 24 July 2021 to 0100 UTC 25 July 2021
Forecast type: TEMPORARY: The following changes expected for less than half the time period
Visibility: 2.49 miles (4.01 km)
Ceiling: 4000 feet AGL
Clouds: scattered clouds at 1500 feet AGL
broken clouds at 4000 feet AGL
Weather: -RA BR  (light rain, mist)
Text: TEMPO 2509/2512 4000 TSRA SCT015 FEW027CB
Forecast period: 0900 to 1200 UTC 25 July 2021
Forecast type: TEMPORARY: The following changes expected for less than half the time period
Visibility: 2.49 miles (4.01 km)
Ceiling: at least 12,000 feet AGL
Clouds: scattered clouds at 1500 feet AGL
few clouds at 2700 feet AGL
Weather: TSRA  (rain associated with thunderstorm(s))